Yersin — 3AYE — position and weather

sailwx.info

Track history (hours):
 
Tides and Currents Weather Stations Pressure Air Temp Water Temp Dewpoint Dewpoint Depression Visibility Wind Speed Wind Dir Waves Ship Positions

Yersin

Last reported at 2018-Mar-07 01:03 UTC. Time now 2018-May-20 15:25 UTC.
Position N 09°22' W 079°55'.
Warning: this ship's position is months out of date.

Length 76 m; draft 4.5 m.

Type: Pleasure craft. MMSI: 254721000.

Date/timePositionNaut miles runAvg speedWind from/ knotsBaromVisibWave heightAir tempDewpointWater temp
2018-Mar-07 01:03N 09°22' W 079°55'0 0.1
2018-Mar-07 01:00N 09°22' W 079°55'0 0.1
2018-Mar-07 00:30N 09°22' W 079°55'0 0.0
2018-Mar-07 00:00N 09°22' W 079°55'0 0.1
2018-Mar-06 23:30N 09°22' W 079°55'0 0.0
2018-Mar-06 23:00N 09°22' W 079°55'0 0.0
2018-Mar-06 22:30N 09°22' W 079°55'0 0.1
2018-Mar-06 22:00N 09°22' W 079°55'0 0.1
2018-Mar-06 21:30N 09°22' W 079°55'0 0.0
2018-Mar-06 21:00N 09°22' W 079°55'0 0.0
2018-Mar-06 20:30N 09°22' W 079°55'0 0.0
2018-Mar-06 20:00N 09°22' W 079°55'0 0.0
2018-Mar-06 19:30N 09°22' W 079°55'0 0.0
2018-Mar-06 19:00N 09°22' W 079°55'0 0.0
2018-Mar-06 18:30N 09°22' W 079°55'0 0.0
2018-Mar-06 18:00N 09°22' W 079°55'0 0.0
2018-Mar-06 17:30N 09°22' W 079°55'0 0.0
2018-Mar-06 17:00N 09°22' W 079°55'0 0.0
2018-Mar-06 16:30N 09°22' W 079°55'0 0.0
2018-Mar-06 16:00N 09°22' W 079°55'0 0.0
2018-Mar-06 15:30N 09°22' W 079°55'0 0.1
2018-Mar-06 15:00N 09°22' W 079°55'0 0.0
2018-Mar-06 14:30N 09°22' W 079°55'0 0.0
2018-Mar-06 14:00N 09°22' W 079°55'0 0.0
2018-Mar-06 13:30N 09°22' W 079°55'0 0.0
2018-Mar-06 13:00N 09°22' W 079°55'0 0.0
2018-Mar-06 12:30N 09°22' W 079°55'0 0.3
2018-Mar-06 12:00N 09°22' W 079°55'3 6.1
2018-Mar-06 11:30N 09°25' W 079°55'4 7.2
2018-Mar-06 11:00N 09°29' W 079°55'1 2.5
2018-Mar-06 10:30N 09°30' W 079°54'4 8.2
2018-Mar-06 09:58N 09°34' W 079°52'  
2018-Feb-27 23:13N 14°25' W 061°10'3 9.8
2018-Feb-27 22:57N 14°28' W 061°10'610.1
2018-Feb-27 22:19N 14°34' W 061°07'2 3.9
2018-Feb-27 21:45N 14°35' W 061°05'1 5.7
2018-Feb-27 21:30N 14°35' W 061°04'1 0.1
2018-Feb-27 09:03N 14°36' W 061°04'0 0.0
2018-Feb-27 08:39N 14°36' W 061°04'0 0.0
2018-Feb-27 08:27N 14°36' W 061°04'0 0.0
2018-Feb-27 07:57N 14°36' W 061°04'0 0.0
2018-Feb-27 06:09N 14°36' W 061°04'0 0.0
2018-Feb-27 05:54N 14°36' W 061°04'0 0.0
2018-Feb-27 05:27N 14°36' W 061°04'0 0.0
2018-Feb-27 04:54N 14°36' W 061°04'0 0.0
2018-Feb-27 04:15N 14°36' W 061°04'0 0.0
2018-Feb-27 04:00N 14°36' W 061°04'0 0.0
2018-Feb-27 03:21N 14°36' W 061°04'0 0.0
2018-Feb-27 01:36N 14°36' W 061°04'0 0.0
2018-Feb-27 01:21N 14°36' W 061°04'0 0.0
2018-Feb-26 11:42N 14°36' W 061°04'0 0.0
2018-Feb-26 11:06N 14°36' W 061°04'0 0.0
2018-Feb-26 10:57N 14°36' W 061°04'0 0.0
2018-Feb-26 10:30N 14°36' W 061°04'0 0.0
2018-Feb-26 10:00N 14°36' W 061°04'0 0.0
2018-Feb-26 09:30N 14°36' W 061°04'0 0.0
2018-Feb-26 08:30N 14°36' W 061°04'0 0.0
2018-Feb-26 08:00N 14°36' W 061°04'0 0.0
2018-Feb-26 07:30N 14°36' W 061°04'0 0.0
2018-Feb-26 06:57N 14°36' W 061°04'0 0.0
2018-Feb-26 06:27N 14°36' W 061°04'0 0.0
2018-Feb-26 06:00N 14°36' W 061°04'0 0.0
2018-Feb-26 05:27N 14°36' W 061°04'0 0.0
2018-Feb-26 04:57N 14°36' W 061°04'0 0.0
2018-Feb-26 01:12N 14°36' W 061°04'0 0.0
2018-Feb-25 15:42N 14°36' W 061°04'0 0.0
2018-Feb-25 10:57N 14°36' W 061°04'0 0.0
2018-Feb-25 10:18N 14°36' W 061°04'0 0.0
2018-Feb-25 10:00N 14°36' W 061°04'0 0.0
2018-Feb-25 09:27N 14°36' W 061°04'0 0.0
2018-Feb-25 08:54N 14°36' W 061°04'0 0.0
2018-Feb-25 08:30N 14°36' W 061°04'0 0.0
2018-Feb-25 07:54N 14°36' W 061°04'0 0.0
2018-Feb-25 07:27N 14°36' W 061°04'0 0.0
2018-Feb-25 07:00N 14°36' W 061°04'0 0.0
2018-Feb-25 06:30N 14°36' W 061°04'0 0.0
2018-Feb-25 06:00N 14°36' W 061°04'0 0.0
2018-Feb-25 05:24N 14°36' W 061°04'0 0.0
2018-Feb-25 05:00N 14°36' W 061°04'0 0.0
2018-Feb-25 04:30N 14°36' W 061°04'0 0.0
2018-Feb-25 04:00N 14°36' W 061°04'0 0.0
2018-Feb-25 03:30N 14°36' W 061°04'0 0.0
2018-Feb-25 03:00N 14°36' W 061°04'0 0.0
2018-Feb-25 02:27N 14°36' W 061°04'  
Track history (hours):
 
Tides and Currents Weather Stations Pressure Air Temp Water Temp Dewpoint Dewpoint Depression Visibility Wind Speed Wind Dir Waves Ship Positions

Yersin

Last reported at 2018-Mar-07 01:03 UTC. Time now 2018-May-20 15:25 UTC.
Position N 09°22' W 079°55'.
Warning: this ship's position is months out of date.

Length 76 m; draft 4.5 m.

Type: Pleasure craft. MMSI: 254721000.

Date/timePositionNaut miles runAvg speedWind from/ knotsBaromVisibWave heightAir tempDewpointWater temp
2018-Mar-07 01:03N 09°22' W 079°55'0 0.1
2018-Mar-07 01:00N 09°22' W 079°55'0 0.1
2018-Mar-07 00:30N 09°22' W 079°55'0 0.0
2018-Mar-07 00:00N 09°22' W 079°55'0 0.1
2018-Mar-06 23:30N 09°22' W 079°55'0 0.0
2018-Mar-06 23:00N 09°22' W 079°55'0 0.0
2018-Mar-06 22:30N 09°22' W 079°55'0 0.1
2018-Mar-06 22:00N 09°22' W 079°55'0 0.1
2018-Mar-06 21:30N 09°22' W 079°55'0 0.0
2018-Mar-06 21:00N 09°22' W 079°55'0 0.0
2018-Mar-06 20:30N 09°22' W 079°55'0 0.0
2018-Mar-06 20:00N 09°22' W 079°55'0 0.0
2018-Mar-06 19:30N 09°22' W 079°55'0 0.0
2018-Mar-06 19:00N 09°22' W 079°55'0 0.0
2018-Mar-06 18:30N 09°22' W 079°55'0 0.0
2018-Mar-06 18:00N 09°22' W 079°55'0 0.0
2018-Mar-06 17:30N 09°22' W 079°55'0 0.0
2018-Mar-06 17:00N 09°22' W 079°55'0 0.0
2018-Mar-06 16:30N 09°22' W 079°55'0 0.0
2018-Mar-06 16:00N 09°22' W 079°55'0 0.0
2018-Mar-06 15:30N 09°22' W 079°55'0 0.1
2018-Mar-06 15:00N 09°22' W 079°55'0 0.0
2018-Mar-06 14:30N 09°22' W 079°55'0 0.0
2018-Mar-06 14:00N 09°22' W 079°55'0 0.0
2018-Mar-06 13:30N 09°22' W 079°55'0 0.0
2018-Mar-06 13:00N 09°22' W 079°55'0 0.0
2018-Mar-06 12:30N 09°22' W 079°55'0 0.3
2018-Mar-06 12:00N 09°22' W 079°55'3 6.1
2018-Mar-06 11:30N 09°25' W 079°55'4 7.2
2018-Mar-06 11:00N 09°29' W 079°55'1 2.5
2018-Mar-06 10:30N 09°30' W 079°54'4 8.2
2018-Mar-06 09:58N 09°34' W 079°52'  
2018-Feb-27 23:13N 14°25' W 061°10'3 9.8
2018-Feb-27 22:57N 14°28' W 061°10'610.1
2018-Feb-27 22:19N 14°34' W 061°07'2 3.9
2018-Feb-27 21:45N 14°35' W 061°05'1 5.7
2018-Feb-27 21:30N 14°35' W 061°04'1 0.1
2018-Feb-27 09:03N 14°36' W 061°04'0 0.0
2018-Feb-27 08:39N 14°36' W 061°04'0 0.0
2018-Feb-27 08:27N 14°36' W 061°04'0 0.0
2018-Feb-27 07:57N 14°36' W 061°04'0 0.0
2018-Feb-27 06:09N 14°36' W 061°04'0 0.0
2018-Feb-27 05:54N 14°36' W 061°04'0 0.0
2018-Feb-27 05:27N 14°36' W 061°04'0 0.0
2018-Feb-27 04:54N 14°36' W 061°04'0 0.0
2018-Feb-27 04:15N 14°36' W 061°04'0 0.0
2018-Feb-27 04:00N 14°36' W 061°04'0 0.0
2018-Feb-27 03:21N 14°36' W 061°04'0 0.0
2018-Feb-27 01:36N 14°36' W 061°04'0 0.0
2018-Feb-27 01:21N 14°36' W 061°04'0 0.0
2018-Feb-26 11:42N 14°36' W 061°04'0 0.0
2018-Feb-26 11:06N 14°36' W 061°04'0 0.0
2018-Feb-26 10:57N 14°36' W 061°04'0 0.0
2018-Feb-26 10:30N 14°36' W 061°04'0 0.0
2018-Feb-26 10:00N 14°36' W 061°04'0 0.0
2018-Feb-26 09:30N 14°36' W 061°04'0 0.0
2018-Feb-26 08:30N 14°36' W 061°04'0 0.0
2018-Feb-26 08:00N 14°36' W 061°04'0 0.0
2018-Feb-26 07:30N 14°36' W 061°04'0 0.0
2018-Feb-26 06:57N 14°36' W 061°04'0 0.0
2018-Feb-26 06:27N 14°36' W 061°04'0 0.0
2018-Feb-26 06:00N 14°36' W 061°04'0 0.0
2018-Feb-26 05:27N 14°36' W 061°04'0 0.0
2018-Feb-26 04:57N 14°36' W 061°04'0 0.0
2018-Feb-26 01:12N 14°36' W 061°04'0 0.0
2018-Feb-25 15:42N 14°36' W 061°04'0 0.0
2018-Feb-25 10:57N 14°36' W 061°04'0 0.0
2018-Feb-25 10:18N 14°36' W 061°04'0 0.0
2018-Feb-25 10:00N 14°36' W 061°04'0 0.0
2018-Feb-25 09:27N 14°36' W 061°04'0 0.0
2018-Feb-25 08:54N 14°36' W 061°04'0 0.0
2018-Feb-25 08:30N 14°36' W 061°04'0 0.0
2018-Feb-25 07:54N 14°36' W 061°04'0 0.0
2018-Feb-25 07:27N 14°36' W 061°04'0 0.0
2018-Feb-25 07:00N 14°36' W 061°04'0 0.0
2018-Feb-25 06:30N 14°36' W 061°04'0 0.0
2018-Feb-25 06:00N 14°36' W 061°04'0 0.0
2018-Feb-25 05:24N 14°36' W 061°04'0 0.0
2018-Feb-25 05:00N 14°36' W 061°04'0 0.0
2018-Feb-25 04:30N 14°36' W 061°04'0 0.0
2018-Feb-25 04:00N 14°36' W 061°04'0 0.0
2018-Feb-25 03:30N 14°36' W 061°04'0 0.0
2018-Feb-25 03:00N 14°36' W 061°04'0 0.0
2018-Feb-25 02:27N 14°36' W 061°04'  

Dump ship's entire track history